• Join FlightAware (Why Join?)
  • Login
  • US Flag 
10:47AM EST


 

Airport Tracker/Info


-or-


 

Live Flight TrackerFlight Track Log ✈ AAL832 ✈ 08-Aug-2013 ✈ KORD - KMIA

Flight Track Log - Related Links

Times and Time Zones

All times are in EDT time to prevent confusion due to time zone crossing. See the AAL832 flight status page for this flight to view local times or setup timezone preferences in your user account.

Time Position Orientation Groundspeed Altitude Reporting Facility
EDT Latitude Longitude Course Direction KTS MPH feet Rate Location/Type
05:43PM 41.9840 -87.9040 90° East 135 155  Level FlightAware
05:44PM 41.9740 -87.8660 109° East 179 206 2,100 2,520 Climbing FlightAware
05:44PM 41.9600 -87.8510 141° Southeast 203 234 2,600 1,320 Climbing FlightAware
05:45PM 41.9490 -87.8380 139° Southeast 231 266 2,900 2,040 Climbing FlightAware
05:45PM 41.9300 -87.8160 139° Southeast 254 292 3,800 2,700 Climbing FlightAware
05:45PM 41.9150 -87.7990 140° Southeast 263 303 4,600 2,700 Climbing FlightAware
05:46PM 41.8960 -87.7760 138° Southeast 279 321 5,500 2,700 Climbing FlightAware
05:46PM 41.8800 -87.7590 142° Southeast 284 327 6,300 3,120 Climbing FlightAware
05:46PM 41.8570 -87.7460 157° South 289 333 7,300 3,360 Climbing FlightAware
05:46PM 41.8400 -87.7400 165° South 291 335 8,100 3,480 Climbing FlightAware
05:47PM 41.8110 -87.7280 163° South 292 336 9,400 3,060 Climbing FlightAware
05:47PM 41.7690 -87.7110 163° South 304 350 10,900 2,880 Climbing FlightAware
05:48PM 41.7170 -87.6900 163° South 311 358 12,800 1,980 Climbing FlightAware
05:49PM 41.6640 -87.6680 163° South 353 406 13,400 1,740 Climbing FlightAware
05:49PM 41.6050 -87.6440 163° South 365 420 14,900 2,580 Climbing FlightAware
05:50PM 41.5480 -87.6220 164° South 371 427 16,500 2,400 Climbing FlightAware
05:50PM 41.4960 -87.6010 163° South 380 437 17,600 2,160 Climbing FlightAware
05:51PM 41.4350 -87.5760 163° South 384 442 19,000 2,280 Climbing FlightAware
05:51PM 41.3690 -87.5620 171° South 386 444 20,400 2,040 Climbing FlightAware
05:52PM 41.3060 -87.5510 173° South 394 453 21,500 1,920 Climbing FlightAware
05:53PM 41.2470 -87.5410 173° South 400 460 22,600 1,800 Climbing FlightAware
05:53PM 41.1820 -87.5280 171° South 409 471 23,600 1,740 Climbing FlightAware
05:54PM 41.1110 -87.5090 169° South 417 480 24,700 1,620 Climbing FlightAware
05:54PM 41.0440 -87.4910 169° South 424 488 25,600 1,320 Climbing FlightAware
05:55PM 40.9790 -87.4730 168° South 434 499 26,300 1,260 Climbing FlightAware
05:56PM 40.9050 -87.4530 168° South 440 506 27,100 1,320 Climbing FlightAware
05:56PM 40.8430 -87.4430 173° South 434 499 27,800 1,260 Climbing FlightAware
05:57PM 40.7770 -87.4420 179° South 438 504 28,500 1,260 Climbing FlightAware
05:57PM 40.6930 -87.4410 179° South 440 506 29,400 1,200 Climbing FlightAware
05:58PM 40.6310 -87.4410 180° South 443 510 30,000 1,200 Climbing FlightAware
05:58PM 40.5580 -87.4420 181° South 445 512 30,800 1,380 Climbing FlightAware
05:59PM 40.5010 -87.4430 181° South 443 510 31,500 1,440 Climbing FlightAware
06:00PM 40.4110 -87.4350 176° South 452 520 32,500 1,440 Climbing FlightAware
06:00PM 40.3410 -87.3870 152° Southeast 463 533 33,400 1,320 Climbing FlightAware
06:01PM 40.2850 -87.3390 147° Southeast 462 532 34,000 1,020 Climbing FlightAware
06:01PM 40.2210 -87.2860 148° Southeast 464 534 34,600 1,020 Climbing FlightAware
06:02PM 40.1720 -87.2460 148° Southeast 463 533 35,100 1,080 Climbing FlightAware
06:02PM 40.1060 -87.1910 147° Southeast 463 533 35,800 720 Climbing FlightAware
06:03PM 40.0410 -87.1380 148° Southeast 463 533 36,000 120 Climbing FlightAware
06:04PM 39.9830 -87.0910 148° Southeast 462 532 36,000  Level FlightAware
06:04PM 39.9210 -87.0390 147° Southeast 461 531 36,000  Level FlightAware
06:05PM 39.8540 -86.9830 147° Southeast 459 528 36,000  Level FlightAware
06:05PM 39.7860 -86.9270 148° Southeast 458 527 36,000  Level FlightAware
06:06PM 39.7280 -86.8800 148° Southeast 457 526 36,000  Level FlightAware
06:07PM 39.6480 -86.8140 148° Southeast 457 526 36,000  Level FlightAware
06:07PM 39.5910 -86.7670 148° Southeast 459 528 36,000 480 Level FlightAware
06:08PM 39.5280 -86.7150 148° Southeast 457 526 36,600 780 Climbing FlightAware
06:08PM 39.4630 -86.6620 148° Southeast 454 522 37,000 300 Climbing FlightAware
06:09PM 39.3990 -86.6100 148° Southeast 452 520 37,000  Level FlightAware
06:09PM 39.3460 -86.5670 148° Southeast 452 520 37,000  Level FlightAware
06:10PM 39.2820 -86.5160 148° Southeast 453 521 37,000  Level FlightAware
06:11PM 39.2150 -86.4610 148° Southeast 453 521 37,000  Level FlightAware
06:11PM 39.1510 -86.4090 148° Southeast 453 521 37,000  Level FlightAware
06:12PM 39.0750 -86.3480 148° Southeast 454 522 37,000  Level FlightAware
06:13PM 39.0120 -86.2970 148° Southeast 455 524 37,000  Level FlightAware
06:13PM 38.9550 -86.2510 148° Southeast 455 524 37,000  Level FlightAware
06:14PM 38.8890 -86.1980 148° Southeast 455 524 37,000  Level FlightAware
06:14PM 38.8230 -86.1460 148° Southeast 455 524 37,000  Level FlightAware
06:15PM 38.7670 -86.1010 148° Southeast 453 521 37,000  Level FlightAware
06:15PM 38.7050 -86.0510 148° Southeast 451 519 37,000  Level FlightAware
06:16PM 38.6410 -86.0000 148° Southeast 448 516 37,000  Level FlightAware
06:17PM 38.5840 -85.9550 148° Southeast 445 512 37,000  Level FlightAware
06:17PM 38.5240 -85.9080 148° Southeast 445 512 37,000  Level FlightAware
06:18PM 38.4430 -85.8440 148° Southeast 447 514 37,000  Level FlightAware
06:19PM 38.3830 -85.7970 148° Southeast 449 517 37,000  Level FlightAware
06:19PM 38.3210 -85.7480 148° Southeast 449 517 37,000  Level FlightAware
06:20PM 38.2600 -85.7000 148° Southeast 448 516 37,000  Level FlightAware
06:20PM 38.1930 -85.6470 148° Southeast 447 514 37,000  Level FlightAware
06:21PM 38.1390 -85.6050 149° Southeast 447 514 37,000  Level FlightAware
06:21PM 38.0760 -85.5560 149° Southeast 446 513 37,000  Level FlightAware
06:22PM 38.0130 -85.5060 148° Southeast 446 513 37,000  Level FlightAware
06:23PM 37.9540 -85.4590 148° Southeast 445 512 37,000  Level FlightAware
06:23PM 37.8900 -85.4090 148° Southeast 444 511 37,000  Level FlightAware
06:24PM 37.8370 -85.3670 148° Southeast 444 511 37,000  Level FlightAware
06:24PM 37.7800 -85.3226 148° Southeast 447 514 37,000  Level FlightAware ADS-B
06:25PM 37.7070 -85.2650 148° Southeast 451 519 37,000  Level FlightAware
06:25PM 37.6807 -85.2448 149° Southeast 451 519 37,000  Level FlightAware ADS-B
06:26PM 37.6262 -85.2023 148° Southeast 451 519 37,000  Level FlightAware ADS-B
06:26PM 37.5703 -85.1585 148° Southeast 450 518 37,000  Level FlightAware ADS-B
06:27PM 37.5167 -85.1168 148° Southeast 450 518 37,000  Level FlightAware ADS-B
06:27PM 37.4623 -85.0745 148° Southeast 449 517 37,000  Level FlightAware ADS-B
06:28PM 37.4069 -85.0315 148° Southeast 448 516 37,000  Level FlightAware ADS-B
06:28PM 37.3487 -84.9865 148° Southeast 448 516 37,000  Level FlightAware ADS-B
06:29PM 37.2919 -84.9427 148° Southeast 448 516 37,000  Level FlightAware ADS-B
06:29PM 37.2386 -84.9016 148° Southeast 448 516 37,000  Level FlightAware ADS-B
06:30PM 37.1851 -84.8606 149° Southeast 456 525 37,000 240 Level FlightAware ADS-B
06:30PM 37.1294 -84.8175 148° Southeast 459 528 37,300 660 Climbing FlightAware ADS-B
06:31PM 37.0742 -84.7750 148° Southeast 460 529 37,700 900 Climbing FlightAware ADS-B
06:31PM 37.0200 -84.7335 149° Southeast 457 526 38,200 900 Climbing FlightAware ADS-B
06:32PM 36.9659 -84.6922 149° Southeast 457 526 38,600 600 Climbing FlightAware ADS-B
06:32PM 36.9025 -84.6440 149° Southeast 457 526 38,900 360 Climbing FlightAware ADS-B
06:33PM 36.8466 -84.6015 149° Southeast 460 529 39,000 60 Climbing FlightAware ADS-B
06:33PM 36.7890 -84.5577 149° Southeast 461 531 39,000  Level FlightAware ADS-B
06:34PM 36.7336 -84.5157 149° Southeast 462 532 39,000  Level FlightAware ADS-B
06:35PM 36.6772 -84.4727 149° Southeast 461 531 39,000  Level FlightAware ADS-B
06:35PM 36.6224 -84.4312 149° Southeast 460 529 39,000  Level FlightAware ADS-B
06:36PM 36.5663 -84.3888 149° Southeast 460 529 39,000  Level FlightAware ADS-B
06:36PM 36.5118 -84.3476 149° Southeast 459 528 39,000  Level FlightAware ADS-B
06:36PM 36.4688 -84.3150 149° Southeast 459 528 39,000  Level FlightAware ADS-B
06:37PM 36.4149 -84.2635 142° Southeast 460 529 39,000  Level FlightAware ADS-B
06:38PM 36.3584 -84.2072 141° Southeast 460 529 39,000  Level FlightAware ADS-B
06:38PM 36.3008 -84.1503 141° Southeast 461 531 39,000  Level FlightAware ADS-B
06:39PM 36.2495 -84.0995 141° Southeast 460 529 39,000  Level FlightAware ADS-B
06:39PM 36.1954 -84.0463 142° Southeast 461 531 39,000  Level FlightAware ADS-B
06:40PM 36.1541 -84.0059 142° Southeast 463 533 39,000  Level FlightAware ADS-B
06:40PM 36.1021 -83.9561 142° Southeast 464 534 39,000  Level FlightAware ADS-B
06:41PM 36.0500 -83.9060 142° Southeast 465 535 39,000  Level FlightAware ADS-B
06:41PM 35.9987 -83.8567 142° Southeast 465 535 39,000  Level FlightAware ADS-B
06:42PM 35.9460 -83.8066 142° Southeast 466 536 39,000  Level FlightAware ADS-B
06:42PM 35.8938 -83.7573 143° Southeast 466 536 39,000  Level FlightAware ADS-B
06:43PM 35.8359 -83.7030 143° Southeast 467 537 39,000  Level FlightAware ADS-B
06:43PM 35.7825 -83.6532 143° Southeast 468 539 39,000  Level FlightAware ADS-B
06:44PM 35.7299 -83.6041 143° Southeast 470 541 39,000  Level FlightAware ADS-B
06:44PM 35.6775 -83.5562 143° Southeast 470 541 39,000  Level FlightAware ADS-B
06:45PM 35.6167 -83.5106 149° Southeast 470 541 39,000  Level FlightAware ADS-B
06:45PM 35.5714 -83.4775 149° Southeast 471 542 39,000  Level FlightAware ADS-B
06:45PM 35.5549 -83.4667 152° Southeast 471 542 39,000  Level FlightAware ADS-B
06:46PM 35.5269 -83.4516 156° South 472 543 39,000  Level FlightAware ADS-B
06:46PM 35.4637 -83.4251 161° South 474 545 39,000  Level FlightAware ADS-B
06:47PM 35.3934 -83.3964 162° South 476 548 39,000  Level FlightAware ADS-B
06:47PM 35.3284 -83.3707 162° South 478 550 39,000  Level FlightAware ADS-B
06:48PM 35.2598 -83.3439 162° South 479 551 39,000  Level FlightAware ADS-B
06:48PM 35.1760 -83.3113 162° South 480 552 39,000  Level FlightAware ADS-B
06:49PM 35.1125 -83.2863 162° South 480 552 39,000  Level FlightAware ADS-B
06:49PM 35.0473 -83.2606 162° South 481 554 39,000  Level FlightAware ADS-B
06:50PM 34.9830 -83.2353 162° South 480 552 39,000  Level FlightAware ADS-B
06:50PM 34.9195 -83.2106 162° South 476 548 39,000  Level FlightAware ADS-B
06:51PM 34.8538 -83.1850 162° South 472 543 39,000  Level FlightAware ADS-B
06:51PM 34.7909 -83.1604 162° South 469 540 39,000  Level FlightAware ADS-B
06:52PM 34.7254 -83.1347 162° South 469 540 39,000  Level FlightAware ADS-B
06:52PM 34.6619 -83.1098 162° South 469 540 39,000  Level FlightAware ADS-B
06:53PM 34.5973 -83.0847 162° South 468 539 39,000  Level FlightAware ADS-B
06:54PM 34.5090 -83.0500 162° South 468 539 39,000  Level FlightAware
06:54PM 34.4420 -83.0240 162° South 469 540 39,000  Level FlightAware
06:54PM 34.4217 -83.0166 163° South 468 539 39,000  Level FlightAware ADS-B
06:55PM 34.2972 -82.9685 162° South 471 542 39,000  Level FlightAware ADS-B
06:56PM 34.2270 -82.9420 163° South 471 542 39,000  Level FlightAware
06:57PM 34.1500 -82.9120 162° South 472 543 39,000  Level FlightAware
06:57PM 34.0810 -82.8850 162° South 472 543 39,000  Level FlightAware
06:58PM 34.0050 -82.8560 162° South 471 542 39,000 -360 Level FlightAware
06:58PM 33.9300 -82.8270 162° South 469 540 38,600 -840 Descending FlightAware
06:59PM 33.8550 -82.7980 162° South 470 541 38,000 -540 Descending FlightAware
06:59PM 33.7880 -82.7730 163° South 471 542 38,000  Level FlightAware
07:00PM 33.7053 -82.7417 163° South 471 542 38,000  Level FlightAware ADS-B
07:01PM 33.6400 -82.7170 163° South 472 543 38,000  Level FlightAware
07:01PM 33.5680 -82.6900 163° South 473 544 38,000  Level FlightAware
07:02PM 33.5000 -82.6640 162° South 475 547 38,000  Level FlightAware
07:02PM 33.4210 -82.6340 162° South 476 548 38,000  Level FlightAware
07:03PM 33.3430 -82.6040 162° South 477 549 38,000  Level FlightAware
07:04PM 33.2770 -82.5790 162° South 477 549 38,000  Level FlightAware
07:04PM 33.1970 -82.5490 163° South 475 547 38,000  Level FlightAware
07:05PM 33.1240 -82.5220 163° South 474 545 38,000  Level FlightAware
07:05PM 33.0570 -82.4970 163° South 472 543 38,000  Level FlightAware
07:06PM 32.9790 -82.4680 163° South 472 543 38,000  Level FlightAware
07:07PM 32.8830 -82.4320 163° South 472 543 38,000  Level FlightAware
07:07PM 32.8080 -82.4040 163° South 472 543 38,000  Level FlightAware
07:08PM 32.7350 -82.3770 163° South 472 543 38,000  Level FlightAware
07:08PM 32.6690 -82.3520 162° South 470 541 38,000  Level FlightAware
07:09PM 32.5930 -82.3240 163° South 469 540 38,000  Level FlightAware
07:10PM 32.5180 -82.2960 163° South 468 539 38,000  Level FlightAware
07:10PM 32.4500 -82.2700 162° South 468 539 38,000  Level FlightAware
07:11PM 32.3420 -82.2310 163° South 469 540 38,000  Level FlightAware
07:12PM 32.2490 -82.1960 162° South 468 539 38,000  Level FlightAware
07:12PM 32.1570 -82.1630 163° South 465 535 38,000  Level FlightAware
07:13PM 32.0850 -82.1370 163° South 461 531 38,000  Level FlightAware
07:14PM 32.0050 -82.1070 162° South 460 529 38,000  Level FlightAware
07:14PM 31.9810 -82.0990 164° South 257 296 38,000  Level FlightAware
07:19PM 31.3580 -81.8730 163° South 467 537 38,000  Level FlightAware
07:20PM 31.2700 -81.8400 162° South 467 537 38,000  Level FlightAware
07:21PM 31.2080 -81.8160 162° South 467 537 38,000  Level FlightAware
07:21PM 31.1450 -81.7920 162° South 467 537 38,000  Level FlightAware
07:22PM 31.0820 -81.7680 162° South 467 537 38,000  Level FlightAware
07:22PM 31.0170 -81.7440 162° South 467 537 38,000  Level FlightAware
07:23PM 30.9540 -81.7200 162° South 467 537 38,000  Level FlightAware
07:24PM 30.8910 -81.6960 162° South 467 537 38,000  Level FlightAware
07:24PM 30.8290 -81.6720 162° South 467 537 38,000  Level FlightAware
07:25PM 30.6540 -81.6210 166° South 469 540 38,000  Level FlightAware
07:25PM 30.5920 -81.6000 164° South 468 539 38,000  Level FlightAware
07:26PM 30.5010 -81.5670 163° South 471 542 38,000  Level FlightAware
07:26PM 30.4280 -81.5410 163° South 472 543 38,000  Level FlightAware
07:27PM 30.3590 -81.5170 163° South 473 544 38,000  Level FlightAware
07:28PM 30.2670 -81.4830 162° South 473 544 38,000  Level FlightAware
07:28PM 30.1960 -81.4540 161° South 474 545 38,000  Level FlightAware
07:29PM 30.1300 -81.4290 162° South 474 545 38,000  Level FlightAware
07:29PM 30.0620 -81.4020 161° South 476 548 38,000  Level FlightAware
07:30PM 30.0000 -81.3790 162° South 478 550 38,000  Level FlightAware
07:31PM 29.9060 -81.3430 162° South 478 550 38,000  Level FlightAware
07:31PM 29.8350 -81.3150 161° South 478 550 38,000  Level FlightAware
07:32PM 29.7360 -81.2780 162° South 480 552 38,000  Level FlightAware
07:33PM 29.6630 -81.2500 162° South 480 552 38,000  Level FlightAware
07:33PM 29.5980 -81.2260 162° South 480 552 38,000  Level FlightAware
07:34PM 29.5330 -81.2020 162° South 480 552 38,000  Level FlightAware
07:34PM 29.4670 -81.1770 162° South 480 552 38,000  Level FlightAware
07:35PM 29.4020 -81.1530 162° South 480 552 38,000  Level FlightAware
07:36PM 29.3380 -81.1290 162° South 480 552 38,000  Level FlightAware
07:37PM 29.1440 -81.0490 160° South 467 537 38,000  Level FlightAware
07:37PM 29.0820 -81.0230 160° South 466 536 38,000  Level FlightAware
07:38PM 29.0100 -80.9950 161° South 470 541 38,000  Level FlightAware
07:38PM 28.9280 -80.9620 161° South 470 541 38,000  Level FlightAware
07:39PM 28.8680 -80.9380 161° South 470 541 38,000  Level FlightAware
07:40PM 28.7760 -80.9010 161° South 463 533 38,000  Level FlightAware
07:40PM 28.6980 -80.8700 161° South 471 542 38,000  Level FlightAware
07:41PM 28.6320 -80.8440 161° South 471 542 38,000  Level FlightAware
07:41PM 28.5700 -80.8190 160° South 472 543 38,000  Level FlightAware
07:42PM 28.4820 -80.7840 161° South 471 542 38,000  Level FlightAware
07:42PM 28.4470 -80.7610 150° Southeast 456 525 38,000  Level FlightAware
07:43PM 28.4280 -80.7370 132° Southeast 439 505 38,000  Level FlightAware
07:43PM 28.3950 -80.6780 122° Southeast 433 498 38,000  Level FlightAware
07:44PM 28.3570 -80.6070 121° Southeast 433 498 38,000  Level FlightAware
07:44PM 28.3080 -80.5300 126° Southeast 447 514 38,000  Level FlightAware
07:45PM 28.2710 -80.5090 153° Southeast 471 542 38,000  Level FlightAware
07:45PM 28.1990 -80.4980 172° South 483 556 38,000 -420 Level FlightAware
07:46PM 28.0870 -80.4770 171° South 474 545 37,500 -840 Descending FlightAware
07:47PM 28.0190 -80.4650 171° South 471 542 36,900 -720 Descending FlightAware
07:48PM 27.9730 -80.4560 170° South 471 542 36,500 -1,320 Descending FlightAware
07:48PM 27.8340 -80.4320 171° South 458 527 35,000 -1,380 Descending FlightAware
07:49PM 27.7510 -80.4160 170° South 459 528 34,700 -3,120 Descending FlightAware
07:49PM 27.6700 -80.4030 172° South 468 539 31,200 -4,620 Descending FlightAware
07:50PM 27.5750 -80.3860 171° South 475 547 29,200 -2,040 Descending FlightAware
07:51PM 27.4730 -80.3670 171° South 470 541 28,100 -2,400 Descending FlightAware
07:51PM 27.4090 -80.3560 171° South 454 522 26,000 -3,300 Descending FlightAware
07:52PM 27.3340 -80.3420 171° South 436 502 24,600 -1,740 Descending FlightAware
07:53PM 27.2650 -80.3220 166° South 425 489 24,000 -480 Descending FlightAware
07:53PM 27.1940 -80.2940 161° South 407 468 24,000  Level FlightAware
07:54PM 27.1400 -80.2720 160° South 413 475 24,000 -120 Level FlightAware
07:54PM 27.0740 -80.2450 160° South 413 475 23,900 -1,200 Descending FlightAware
07:55PM 27.0020 -80.2160 160° South 408 470 22,500 -2,280 Descending FlightAware
07:56PM 26.9470 -80.1940 160° South 411 473 21,300 -2,280 Descending FlightAware
07:56PM 26.8860 -80.1690 160° South 396 456 20,000 -2,400 Descending FlightAware
07:57PM 26.8160 -80.1410 160° South 379 436 18,300 -2,760 Descending FlightAware
07:57PM 26.7580 -80.1180 161° South 378 435 16,600 -2,580 Descending FlightAware
07:58PM 26.6930 -80.0920 160° South 358 412 15,100 -1,260 Descending FlightAware
07:59PM 26.6370 -80.0790 168° South 356 410 15,000 -900 Descending FlightAware
07:59PM 26.5770 -80.0690 172° South 356 410 14,100 -1,440 Descending FlightAware
08:00PM 26.5200 -80.0590 171° South 346 398 13,400 -1,020 Descending FlightAware
08:00PM 26.4620 -80.0490 171° South 341 392 12,900 -480 Descending FlightAware
08:01PM 26.4100 -80.0400 171° South 339 390 12,900 -600 Level FlightAware
08:02PM 26.3540 -80.0300 171° South 335 386 12,200 -1,140 Descending FlightAware
08:02PM 26.2970 -80.0200 171° South 327 376 11,500 -1,140 Descending FlightAware
08:03PM 26.2250 -80.0210 181° South 323 372 10,600 -1,140 Descending FlightAware
08:04PM 26.1820 -80.0330 194° South 310 357 10,000 -780 Descending FlightAware
08:04PM 26.1480 -80.0430 195° South 290 334 9,900 -180 Descending FlightAware
08:04PM 26.1220 -80.0500 194° South 270 311 9,900 180 Level FlightAware
08:04PM 26.1090 -80.0540 195° South 258 297 10,000 -540 Climbing FlightAware
08:05PM 26.0820 -80.0620 195° South 244 281 9,600 -1,380 Descending FlightAware
08:05PM 26.0600 -80.0680 194° South 246 283 9,000 -1,500 Descending FlightAware
08:06PM 26.0370 -80.0740 193° South 243 280 8,600 -1,320 Descending FlightAware
08:06PM 26.0150 -80.0810 196° South 241 277 8,100 -1,020 Descending FlightAware
08:06PM 25.9900 -80.0880 194° South 238 274 7,900 -360 Descending FlightAware
08:06PM 25.9780 -80.0930 201° Southwest 241 277 7,900 300 Level FlightAware
08:07PM 25.9700 -80.0980 209° Southwest 243 280 8,000 180 Climbing FlightAware
08:07PM 25.9530 -80.1140 220° Southwest 251 289 8,000  Level FlightAware
08:07PM 25.9470 -80.1230 233° Southwest 254 292 8,000  Level FlightAware
08:07PM 25.9350 -80.1450 239° Southwest 253 291 8,000 -180 Level FlightAware
08:08PM 25.9220 -80.1690 239° Southwest 258 297 7,900 -240 Descending FlightAware
08:08PM 25.9190 -80.1790 252° West 258 297 7,900 -1,140 Level FlightAware
08:08PM 25.9170 -80.1890 257° West 258 297 7,600 -1,740 Descending FlightAware
08:08PM 25.9210 -80.2130 281° West 260 299 7,100 -1,560 Descending FlightAware
08:09PM 25.9270 -80.2390 284° West 260 299 6,600 -1,380 Descending FlightAware
08:09PM 25.9330 -80.2650 284° West 257 296 6,200 -960 Descending FlightAware
08:09PM 25.9400 -80.2960 284° West 251 289 5,900 -420 Descending FlightAware
08:10PM 25.9460 -80.3220 284° West 248 285 5,900  Level FlightAware
08:10PM 25.9520 -80.3470 285° West 251 289 5,900 -600 Level FlightAware
08:10PM 25.9580 -80.3730 284° West 246 283 5,500 -1,200 Descending FlightAware
08:11PM 25.9630 -80.3960 284° West 246 283 5,100 -1,440 Descending FlightAware
08:11PM 25.9640 -80.4100 275° West 245 282 4,800 -1,320 Descending FlightAware
08:11PM 25.9520 -80.4350 242° Southwest 216 249 4,300 -1,200 Descending FlightAware
08:11PM 25.9480 -80.4380 214° Southwest 203 234 4,200 -1,500 Descending FlightAware
08:12PM 25.9430 -80.4390 190° South 206 237 4,100 -1,620 Descending FlightAware
08:12PM 25.9340 -80.4400 186° South 191 220 3,800 -1,500 Descending FlightAware
08:12PM 25.9180 -80.4370 170° South 183 211 3,400 -1,380 Descending FlightAware
08:12PM 25.9070 -80.4340 166° South 190 219 3,000 -1,680 Descending FlightAware
08:12PM 25.8960 -80.4290 158° South 176 203 2,700 -1,200 Descending FlightAware
08:13PM 25.8800 -80.4220 159° South 177 204 2,400 -720 Descending FlightAware
08:13PM 25.8590 -80.4100 153° Southeast 184 212 2,100 -600 Descending FlightAware
08:13PM 25.8520 -80.4030 138° Southeast 183 211 2,000 -600 Descending FlightAware
08:14PM 25.8470 -80.3950 125° Southeast 175 201 1,900 -1,020 Descending FlightAware
08:14PM 25.8390 -80.3800 121° Southeast 163 188 1,500 -1,020 Descending FlightAware
08:14PM 25.8340 -80.3700 119° Southeast 155 178 1,300 -900 Descending FlightAware
08:15PM 25.8270 -80.3560 119° Southeast 148 170 1,000 -900 Descending FlightAware
08:15PM 25.8190 -80.3410 121° Southeast 145 167 700 -840 Descending FlightAware
08:15PM 25.8140 -80.3310 119° Southeast 144 166 500 -720 Descending FlightAware
08:15PM 25.8080 -80.3190 119° Southeast 144 166 300 -660 Descending FlightAware
08:16PM 25.8010 -80.3060 121° Southeast 142 163 100 -600 Descending FlightAware
08:16PM 25.7940 -80.2930 121° Southeast 115 132 -300 Descending FlightAware